ראשי / חיפושים אחרונים

חיפושים אחרונים

לוחית
סוג רכב
דגם
שנה
תאריך חיפוש
שעת חיפוש
76635603 צ'רי סין TIGGO 8 PRO 2024 02/09/2026 07:43:14
21338201 ניסאן יפן X-TRAIL 2018 02/09/2026 07:43:13
2854450 דייהטסו יפן SIRION 2006 02/09/2026 07:43:08
4685557 רנו צרפת KANGOO 2005 02/09/2026 07:43:07
30690603 וולבו שבדיה - 2023 02/09/2026 07:43:06
8852366 טויוטה יפן COROLLA 2009 02/09/2026 07:43:05
85322602 גילי סין GEOMETRY C 2022 02/09/2026 07:43:04
1151932 יונדאי טורקיה I10 2014 02/09/2026 07:43:03
6038860 מזדה יפן MAZDA 5 2006 02/09/2026 07:43:02
76273603 בי ווי די סין BYD DOLPHIN 2024 02/09/2026 07:43:01
74915602 איסוזו יפן - 2022 02/09/2026 07:42:59
17772102 סקודה צ'כיה KODIAQ 2020 02/09/2026 07:42:57
2849219 דייהו ד. קוריאה אספרו 0081גיר רגיל 1996 02/09/2026 07:42:52
8085557 מזדה יפן CX5 2014 02/09/2026 07:42:50
34917102 הונדה יפן - 2021 02/09/2026 07:42:49
2939730 יונדאי קוריאה הדרומית I35 2014 02/09/2026 07:42:46
66786001 אאודי גרמניה A5 SPORTBACK 2019 02/09/2026 07:42:46
2452312 סקודה צ'כיה SUPERB 2012 02/09/2026 07:42:44
2382167 פולקסווגן פורטוגל EOS 2009 02/09/2026 07:42:43
7336386 טויוטה טורקיה COROLLA 2017 02/09/2026 07:42:42
1058775 פיג'ו סלובקיה 207 2011 02/09/2026 07:42:42
4616213 שברולט ארהב" - 2012 02/09/2026 07:42:38
1144876 מזדה יפן MAZDA 6 2013 02/09/2026 07:42:37
9340832 שברולט ארהב" - 2015 02/09/2026 07:42:34
1020515 פורד גרמניה פיאסטה קליפסו 3 דלתו 1996 02/09/2026 07:42:34
1191564 שברולט קוריאה הדרומית OPTRA 2008 02/09/2026 07:42:32
58862401 ניסאן הודו MICRA 2018 02/09/2026 07:42:31
4903139 סיטרואן ספרד C4 PICASSO 2016 02/09/2026 07:42:30
4608673 סיטרואן צרפת C4 2010 02/09/2026 07:42:30
7525129 מזדה יפן LANTIS 323 2001 02/09/2026 07:42:28
88709002 יגואר בריטניה F-PACE 2022 02/09/2026 07:42:24
1023537 טויוטה בריטניה AURIS 2016 02/09/2026 07:42:24
17338902 סקודה צ'כיה OCTAVIA 2020 02/09/2026 07:42:22
21446204 טויוטה יפן COROLLA CROSS 2025 02/09/2026 07:42:22
7825384 רנו צרפת KANGOO 2017 02/09/2026 07:42:20
8676428 סוזוקי יפן LIANA 2003 02/09/2026 07:42:16
8479732 אופל ספרד CORSA 2014 02/09/2026 07:42:16
7916864 סובארו יפן B4 2008 02/09/2026 07:42:15
4647751 סיטרואן צרפת C3 2003 02/09/2026 07:42:14
3013417 הונדה ארהב" CIVIC 1997 02/09/2026 07:42:12
3697557 פורד ארהב" - 1987 02/09/2026 07:42:12
60194403 רנו טורקיה MEGANE 2024 02/09/2026 07:42:11
60764804 קיה סלובקיה SPORTAGE 2026 02/09/2026 07:42:11
3355379 רנו צרפת - 2012 02/09/2026 07:42:10
60467801 ב מ וו גרמניה X2 SDRIVE 18I 2019 02/09/2026 07:42:07
80675102 שברולט ארהב" - 2023 02/09/2026 07:42:05
1956068 סיטרואן צרפת C4 2008 02/09/2026 07:42:03
1148334 מרצדס גרמניה E250 2015 02/09/2026 07:42:02
6442086 טויוטה טורקיה VERSO 2017 02/09/2026 07:42:02
2864466 יונדאי קוריאה הדרומית GETZ 2008 02/09/2026 07:42:00
3263411 מרצדס בנץ גרמנ - 2013 02/09/2026 07:41:58
60194403 רנו טורקיה MEGANE 2024 02/09/2026 07:41:56
36790504 מ.ג סין MG3 2026 02/09/2026 07:41:56
3351731 יונדאי צ'כיה I30 2014 02/09/2026 07:41:52
70515603 סיטרואן ספרד BERLINGO 2024 02/09/2026 07:41:52
7340376 סיאט ספרד IBIZA 2012 02/09/2026 07:41:44
62675301 סקודה צ'כיה SUPERB 2018 02/09/2026 07:41:43
7742611 ב מ וו גרמניה 316I 2014 02/09/2026 07:41:43
1225867 פיאט טורקיה DOBLO 2009 02/09/2026 07:41:41
6946034 פיג'ו צ'כיה 108 2015 02/09/2026 07:41:40
16263701 מיצובישי יפן OUTLANDER 2017 02/09/2026 07:41:40
1365260 טויוטה יפן COROLLA 2006 02/09/2026 07:41:39
4948739 סיטרואן צרפת JUMPY 2016 02/09/2026 07:41:38
60793402 קרייזלר מכסיקו - 2021 02/09/2026 07:41:38
6761053 סיאט ספרד IBIZA 2015 02/09/2026 07:41:38
9468239 מיצובישי יפן OUTLANDER 2017 02/09/2026 07:41:37
68542603 הייגר סין - 2024 02/09/2026 07:41:35
58623402 סקודה צ'כיה OCTAVIA 2021 02/09/2026 07:41:34
50166803 סקודה צ'כיה KAMIQ 2023 02/09/2026 07:41:34
42277204 אומודה סין OMODA 7 PHEV 2025 02/09/2026 07:41:32
2907074 טויוטה יפן COROLLA 2011 02/09/2026 07:41:28
9468239 מיצובישי יפן OUTLANDER 2017 02/09/2026 07:41:28
68542603 הייגר סין - 2024 02/09/2026 07:41:28
3633461 איסוזו יפן - 2007 02/09/2026 07:41:22
5780974 מרוטי סוזוקי הודו ALTO 2011 02/09/2026 07:41:21
9428855 שברולט ארהב" - 1978 02/09/2026 07:41:21
4690972 שברולט קוריאה הדרומית CRUZE 1.6 LS 2011 02/09/2026 07:41:20
91347001 קשבורר טורקיה - 2019 02/09/2026 07:41:14
31675203 וולבו שבדיה - 2023 02/09/2026 07:41:13
4962854 סקודה צ'כיה OCTAVIA 2015 02/09/2026 07:41:12
78973103 אס ווי אמ סין - 2024 02/09/2026 07:41:10
3360267 סקודה צ'כיה ROOMSTER 2008 02/09/2026 07:41:06
3374679 רנו טורקיה FLUENCE 2012 02/09/2026 07:41:06
50045403 פולקסווגן AMAROK 2023 02/09/2026 07:41:05
2942656 טויוטה טורקיה COROLLA 2004 02/09/2026 07:41:03
6721385 קיה קוריאה הדרומית PICANTO 2017 02/09/2026 07:41:03
3309475 איסוזו תאילנד PICK-UP 2011 02/09/2026 07:41:02
40406702 קיה קוריאה הדרומית NIRO PHEV 2021 02/09/2026 07:41:02
1338550 טויוטה יפן YARIS 2002 02/09/2026 07:41:02
3307070 לקסוס יפן LEXUS GS450H 2010 02/09/2026 07:41:00
48944203 סיטרואן ספרד BERLINGO 2023 02/09/2026 07:40:58
66900702 סובארו יפן XV 2021 02/09/2026 07:40:57
1080061 ביואיק ארהב" LUCERNE 2006 02/09/2026 07:40:55
90796101 קרייזלר ארהב" - 2018 02/09/2026 07:40:55
4200351 מזדה יפן LANTIS-323 2003 02/09/2026 07:40:54
4361117 הונדה יפן CR-V 1999 02/09/2026 07:40:53
79331202 ב מ וו גרמניה 330E 2022 02/09/2026 07:40:49
2009614 יונדאי קוריאה הדרומית GETZ 2006 02/09/2026 07:40:48
2425128 קואנג יאנג טיו - 2017 02/09/2026 07:40:48
63541501 אוובוס ספרד - 2019 02/09/2026 07:40:47
3678351 קנוורט - 2007 02/09/2026 07:40:46
4125167 פולקסווגן גרמניה TRANSPORTER 2010 02/09/2026 07:40:45
79331202 ב מ וו גרמניה 330E 2022 02/09/2026 07:40:45
48992301 סיאט ספרד LEON 2018 02/09/2026 07:40:45
89281403 מזדה יפן MAZDA3 2024 02/09/2026 07:40:44
3851330 מזדה יפן MAZDA 3 2017 02/09/2026 07:40:44
3396478 הונדה בריטניה CIVIC 2011 02/09/2026 07:40:42
4219532 טויוטה טורקיה COROLLA 2015 02/09/2026 07:40:42
2150012 סקודה צ'כיה SUPERB 2012 02/09/2026 07:40:41
8137211 פורד בלגיה MONDEO 2014 02/09/2026 07:40:41
1303263 הונדה יפן CIVIC 2007 02/09/2026 07:40:41
6051967 סובארו יפן IMPREZA B3 2009 02/09/2026 07:40:40
1016811 יונדאי הודו I10 2012 02/09/2026 07:40:40
1435134 מיצובישי תאילנד SPACE STAR 2015 02/09/2026 07:40:39
2606714 פיג'ו צרפת 307 2005 02/09/2026 07:40:38
4573152 רנו טורקיה FLUENCE 2013 02/09/2026 07:40:36
9377150 מזדה יפן LANTIS-323 2003 02/09/2026 07:40:35
4676258 פיאט איטליה PUNT0 60 2006 02/09/2026 07:40:34
4049819 מזדה יפן - 1996 02/09/2026 07:40:34
57009902 פולקסווגן פולי - 2021 02/09/2026 07:40:32
3988168 ניסאן יפן X-TRAIL 2008 02/09/2026 07:40:31
3389485 פורד ספרד - 1985 02/09/2026 07:40:30
8480174 קיה קוריאה הדרומית SPORTAGE 2011 02/09/2026 07:40:29
7349729 מזדה יפן LANTIS 323 2001 02/09/2026 07:40:28
1420328 קוואסאקי יפן - 2016 02/09/2026 07:40:28
60967002 סיאט ספרד IBIZA 2021 02/09/2026 07:40:27
4174674 טויוטה יפן SPACE VERSO 2011 02/09/2026 07:40:26
1410052 טויוטה יפן PRIUS HYBRID 2013 02/09/2026 07:40:25
1401954 דימלרקריזלר-גר - 2014 02/09/2026 07:40:24
8869633 הונדה מקסיקו HR-V 2016 02/09/2026 07:40:23
54457503 קיה קוריאה הדרומית STONIC 2023 02/09/2026 07:40:23
29695904 קיי גי מוביליט REXTON 2025 02/09/2026 07:40:23
3761333 קיה קוריאה הדרומית PICANTO 2015 02/09/2026 07:40:22
51713203 ב מ וו גרמניה 545E XDRIVE 2023 02/09/2026 07:40:21
29695904 קיי גי מוביליט REXTON 2025 02/09/2026 07:40:20
2531939 סובארו יפן XV 2017 02/09/2026 07:40:20
4526880 סיאט ספרד IBIZA 2017 02/09/2026 07:40:19
1262272 קיה קוריאה הדרומית RIO 2010 02/09/2026 07:40:19
6457312 יונדאי טורקיה I20 2012 02/09/2026 07:40:18
6691579 טויוטה טורקיה VERSO 2012 02/09/2026 07:40:17
4066380 אאודי ספרד Q3 2017 02/09/2026 07:40:17
2694638 סיאט ספרד LEON 2016 02/09/2026 07:40:16
5314658 מרוטי סוזוקי הודו ALTO 2014 02/09/2026 07:40:16
19205204 קורבס ספרד - 2025 02/09/2026 07:40:16
2869523 סובארו יפן IMPREZA NEW 2002 02/09/2026 07:40:15
29695904 קיי גי מוביליט REXTON 2025 02/09/2026 07:40:15
80713403 אאודי סלובקיה Q8 2024 02/09/2026 07:40:15
1740561 מזדה יפן MAZDA 6 2007 02/09/2026 07:40:14
29695904 קיי גי מוביליט REXTON 2025 02/09/2026 07:40:14
85447803 מזדה יפן MAZDA CX-5 2024 02/09/2026 07:40:14
6537264 הונדה יפן - 2008 02/09/2026 07:40:13
5843589 סאן יאנג סין - 2017 02/09/2026 07:40:13
7554563 טויוטה יפן CAMRY 2008 02/09/2026 07:40:12
8228838 קיה קוריאה הדרומית SORENTO 2016 02/09/2026 07:40:12
3042962 דייהטסו יפן .SIRION 2007 02/09/2026 07:40:10
4624137 יונדאי קוריאה הדרומית I35 2016 02/09/2026 07:40:08
66517702 טויוטה יפן RAV 4 HYBRID 2021 02/09/2026 07:40:07
85670101 קרייזלר ארהב" GRAND CHEROKEE 2020 02/09/2026 07:40:05
2865462 דייהטסו יפן .SIRION 2007 02/09/2026 07:40:04
45335604 סקודה צ'כיה SCALA FL 2026 02/09/2026 07:40:03
53959302 יונדאי טורקיה I10 2021 02/09/2026 07:40:02
84183803 יונדאי קוריאה הדרומית ELANTRA HEV 2025 02/09/2026 07:40:01
11494004 אקספנג סין G9 2024 02/09/2026 07:39:59
3633461 איסוזו יפן - 2007 02/09/2026 07:39:58
8999463 יונדאי קוריאה הדרומית GETZ 2008 02/09/2026 07:39:57
4268511 יונדאי צ'כיה I30 2013 02/09/2026 07:39:55
3633461 איסוזו יפן - 2007 02/09/2026 07:39:52
60925804 קיה קוריאה הדרומית SPORTAGE HEV 2026 02/09/2026 07:39:51
2835868 פיג'ו צרפת 308 2009 02/09/2026 07:39:50
13703202 מרצדס בנץ גרמנ - 2020 02/09/2026 07:39:48
9147955 שברולט ארהב" - 1987 02/09/2026 07:39:48
4713330 טויוטה טורקיה COROLLA 2014 02/09/2026 07:39:48
1810831 מיצובישי יפן OUTLANDER 2014 02/09/2026 07:39:46
22127301 רובר בריטניה R ROVER EVOQE 2018 02/09/2026 07:39:45
57660704 קאדילאק ארהב" ESCALADE 2026 02/09/2026 07:39:44
62896901 אאודי סלובקיה Q7 E-TRON 2019 02/09/2026 07:39:44
1513617 הונדה יפן - 1996 02/09/2026 07:39:44
9344150 מזדה יפן LANTIS-323 2003 02/09/2026 07:39:43
90999001 מרצדס בנץ גרמנ - 2018 02/09/2026 07:39:42
5780974 מרוטי סוזוקי הודו ALTO 2011 02/09/2026 07:39:41
33852703 יונדאי צ'כיה TUCSON 2023 02/09/2026 07:39:39
4700479 קיה סלובקיה CEED 2012 02/09/2026 07:39:39
7380500 סוזוקי-יפן - 1994 02/09/2026 07:39:39
57660704 קאדילאק ארהב" ESCALADE 2026 02/09/2026 07:39:37
6400737 מרצדס גרמניה S350D LONG 2016 02/09/2026 07:39:36
4204529 רנו ספרד MEGANE 2000 02/09/2026 07:39:36
81097903 סקודה צ'כיה OCTAVIA 2024 02/09/2026 07:39:35
86434202 קיה קוריאה הדרומית PICANTO 2022 02/09/2026 07:39:31
8044427 טויוטה יפן COROLLA 1998 02/09/2026 07:39:30
4850074 טויוטה בריטניה AVENSIS 2011 02/09/2026 07:39:28
1081410 טויוטה יפן COROLLA 2001 02/09/2026 07:39:28
72995203 בומברדיה מקסיק - 2026 02/09/2026 07:39:25
31909703 גולדן דרגון סי - 2023 02/09/2026 07:39:23
2898735 פיג'ו צרפת - 2004 02/09/2026 07:39:23
55553302 מ.ג סין MG4 2023 02/09/2026 07:39:22
92729301 מרצדס בנץ גרמנ - 2021 02/09/2026 07:39:19
7222439 יונדאי צ'כיה I30 2016 02/09/2026 07:39:19
3751372 שברולט קוריאה הדרומית CRUZE I.6 LS 2010 02/09/2026 07:39:17
89460401 טויוטה טורקיה COROLLA SDN 2019 02/09/2026 07:39:16
20158501 ניסאן ארהב" MAXIMA 2018 02/09/2026 07:39:15
וואטסאפ